sensor_id;sensor_type;location;lat;lon;timestamp;temperature;humidity
15596;DHT22;7898;48.658;9.068;2022-09-30T00:01:50;7.70;99.90
15596;DHT22;7898;48.658;9.068;2022-09-30T00:04:20;7.70;99.90
15596;DHT22;7898;48.658;9.068;2022-09-30T00:06:48;7.70;99.90
15596;DHT22;7898;48.658;9.068;2022-09-30T00:09:16;7.70;99.90
15596;DHT22;7898;48.658;9.068;2022-09-30T00:11:46;7.70;99.90
15596;DHT22;7898;48.658;9.068;2022-09-30T00:14:15;7.60;99.90
15596;DHT22;7898;48.658;9.068;2022-09-30T00:16:44;7.60;99.90
15596;DHT22;7898;48.658;9.068;2022-09-30T00:19:11;7.60;99.90
15596;DHT22;7898;48.658;9.068;2022-09-30T00:21:40;7.70;99.90
15596;DHT22;7898;48.658;9.068;2022-09-30T00:24:07;7.80;99.90
15596;DHT22;7898;48.658;9.068;2022-09-30T00:26:36;7.80;99.90
15596;DHT22;7898;48.658;9.068;2022-09-30T00:29:04;7.80;99.90
15596;DHT22;7898;48.658;9.068;2022-09-30T00:31:33;7.80;99.90
15596;DHT22;7898;48.658;9.068;2022-09-30T00:34:00;7.70;99.90
15596;DHT22;7898;48.658;9.068;2022-09-30T00:36:34;7.70;99.90
15596;DHT22;7898;48.658;9.068;2022-09-30T00:39:05;7.80;99.90
15596;DHT22;7898;48.658;9.068;2022-09-30T00:41:33;7.80;99.90
15596;DHT22;7898;48.658;9.068;2022-09-30T00:44:00;7.80;99.90
15596;DHT22;7898;48.658;9.068;2022-09-30T00:46:31;7.80;99.90
15596;DHT22;7898;48.658;9.068;2022-09-30T00:49:04;7.90;99.90
15596;DHT22;7898;48.658;9.068;2022-09-30T00:51:34;7.80;99.90
15596;DHT22;7898;48.658;9.068;2022-09-30T00:54:06;7.80;99.90
15596;DHT22;7898;48.658;9.068;2022-09-30T00:56:38;7.70;99.90
15596;DHT22;7898;48.658;9.068;2022-09-30T00:59:10;7.80;99.90
15596;DHT22;7898;48.658;9.068;2022-09-30T01:01:40;7.60;99.90
15596;DHT22;7898;48.658;9.068;2022-09-30T01:04:11;7.60;99.90
15596;DHT22;7898;48.658;9.068;2022-09-30T01:06:39;8.10;99.90
15596;DHT22;7898;48.658;9.068;2022-09-30T01:09:08;7.60;99.90
15596;DHT22;7898;48.658;9.068;2022-09-30T01:11:34;7.70;99.90
15596;DHT22;7898;48.658;9.068;2022-09-30T01:14:04;7.70;99.90
15596;DHT22;7898;48.658;9.068;2022-09-30T01:16:40;7.60;99.90
15596;DHT22;7898;48.658;9.068;2022-09-30T01:19:34;7.60;99.90
15596;DHT22;7898;48.658;9.068;2022-09-30T01:22:17;7.60;99.90
15596;DHT22;7898;48.658;9.068;2022-09-30T01:25:10;7.60;99.90
15596;DHT22;7898;48.658;9.068;2022-09-30T01:33:42;7.60;99.90
15596;DHT22;7898;48.658;9.068;2022-09-30T01:36:23;7.60;99.90
15596;DHT22;7898;48.658;9.068;2022-09-30T01:38:58;7.60;99.90
15596;DHT22;7898;48.658;9.068;2022-09-30T01:41:37;7.60;99.90
15596;DHT22;7898;48.658;9.068;2022-09-30T01:44:12;7.50;99.90
15596;DHT22;7898;48.658;9.068;2022-09-30T01:46:45;7.60;99.90
15596;DHT22;7898;48.658;9.068;2022-09-30T01:49:18;7.70;99.90
15596;DHT22;7898;48.658;9.068;2022-09-30T01:51:52;7.80;99.90
15596;DHT22;7898;48.658;9.068;2022-09-30T01:54:29;8.50;99.90
15596;DHT22;7898;48.658;9.068;2022-09-30T01:57:02;7.80;99.90
15596;DHT22;7898;48.658;9.068;2022-09-30T01:59:33;7.80;99.90
15596;DHT22;7898;48.658;9.068;2022-09-30T02:02:08;7.90;99.90
15596;DHT22;7898;48.658;9.068;2022-09-30T02:04:38;8.50;99.90
15596;DHT22;7898;48.658;9.068;2022-09-30T02:07:09;7.80;99.90
15596;DHT22;7898;48.658;9.068;2022-09-30T02:09:40;7.80;99.90
15596;DHT22;7898;48.658;9.068;2022-09-30T02:12:19;7.80;99.90
15596;DHT22;7898;48.658;9.068;2022-09-30T02:14:48;7.90;99.90
15596;DHT22;7898;48.658;9.068;2022-09-30T02:17:21;7.90;99.90
15596;DHT22;7898;48.658;9.068;2022-09-30T02:19:53;7.80;99.90
15596;DHT22;7898;48.658;9.068;2022-09-30T02:22:27;7.80;99.90
15596;DHT22;7898;48.658;9.068;2022-09-30T02:24:59;7.80;99.90
15596;DHT22;7898;48.658;9.068;2022-09-30T02:27:32;7.80;99.90
15596;DHT22;7898;48.658;9.068;2022-09-30T02:30:01;7.80;99.90
15596;DHT22;7898;48.658;9.068;2022-09-30T02:32:34;7.80;99.90
15596;DHT22;7898;48.658;9.068;2022-09-30T02:35:04;7.80;99.90
15596;DHT22;7898;48.658;9.068;2022-09-30T02:37:35;7.70;99.90
15596;DHT22;7898;48.658;9.068;2022-09-30T02:40:07;7.70;99.90
15596;DHT22;7898;48.658;9.068;2022-09-30T02:42:36;7.70;99.90
15596;DHT22;7898;48.658;9.068;2022-09-30T02:45:06;7.70;99.90
15596;DHT22;7898;48.658;9.068;2022-09-30T02:47:47;7.70;99.90
15596;DHT22;7898;48.658;9.068;2022-09-30T02:50:19;7.70;99.90
15596;DHT22;7898;48.658;9.068;2022-09-30T02:52:56;7.80;99.90
15596;DHT22;7898;48.658;9.068;2022-09-30T02:55:30;7.70;99.90
15596;DHT22;7898;48.658;9.068;2022-09-30T02:58:06;7.80;99.90
15596;DHT22;7898;48.658;9.068;2022-09-30T03:00:37;7.80;99.90
15596;DHT22;7898;48.658;9.068;2022-09-30T03:03:10;7.70;99.90
15596;DHT22;7898;48.658;9.068;2022-09-30T03:05:38;7.80;99.90
15596;DHT22;7898;48.658;9.068;2022-09-30T03:08:05;7.80;99.90
15596;DHT22;7898;48.658;9.068;2022-09-30T03:10:32;7.80;99.90
15596;DHT22;7898;48.658;9.068;2022-09-30T03:13:13;7.80;99.90
15596;DHT22;7898;48.658;9.068;2022-09-30T03:15:59;7.80;99.90
15596;DHT22;7898;48.658;9.068;2022-09-30T03:18:40;7.70;99.90
15596;DHT22;7898;48.658;9.068;2022-09-30T03:21:21;7.70;99.90
15596;DHT22;7898;48.658;9.068;2022-09-30T03:27:07;7.70;99.90
15596;DHT22;7898;48.658;9.068;2022-09-30T03:29:45;7.70;99.90
15596;DHT22;7898;48.658;9.068;2022-09-30T03:32:26;7.70;99.90
15596;DHT22;7898;48.658;9.068;2022-09-30T03:35:07;7.70;99.90
15596;DHT22;7898;48.658;9.068;2022-09-30T03:37:43;7.70;99.90
15596;DHT22;7898;48.658;9.068;2022-09-30T03:40:19;7.70;99.90
15596;DHT22;7898;48.658;9.068;2022-09-30T03:42:52;7.70;99.90
15596;DHT22;7898;48.658;9.068;2022-09-30T03:45:27;7.60;99.90
15596;DHT22;7898;48.658;9.068;2022-09-30T03:48:00;7.60;99.90
15596;DHT22;7898;48.658;9.068;2022-09-30T03:50:31;7.60;99.90
15596;DHT22;7898;48.658;9.068;2022-09-30T03:52:59;7.90;99.90
15596;DHT22;7898;48.658;9.068;2022-09-30T03:55:26;7.60;99.90
15596;DHT22;7898;48.658;9.068;2022-09-30T03:57:54;7.60;99.90
15596;DHT22;7898;48.658;9.068;2022-09-30T04:00:22;7.40;99.90
15596;DHT22;7898;48.658;9.068;2022-09-30T04:02:49;7.40;99.90
15596;DHT22;7898;48.658;9.068;2022-09-30T04:05:16;7.30;99.90
15596;DHT22;7898;48.658;9.068;2022-09-30T04:07:45;7.20;99.90
15596;DHT22;7898;48.658;9.068;2022-09-30T04:10:11;7.10;99.90
15596;DHT22;7898;48.658;9.068;2022-09-30T04:12:38;7.10;99.90
15596;DHT22;7898;48.658;9.068;2022-09-30T04:15:06;7.60;99.90
15596;DHT22;7898;48.658;9.068;2022-09-30T04:17:33;7.00;99.90
15596;DHT22;7898;48.658;9.068;2022-09-30T04:20:00;7.10;99.90
15596;DHT22;7898;48.658;9.068;2022-09-30T04:22:27;7.10;99.90
15596;DHT22;7898;48.658;9.068;2022-09-30T04:24:55;7.20;99.90
15596;DHT22;7898;48.658;9.068;2022-09-30T04:27:22;7.20;99.90
15596;DHT22;7898;48.658;9.068;2022-09-30T04:29:49;7.30;99.90
15596;DHT22;7898;48.658;9.068;2022-09-30T04:32:16;7.30;99.90
15596;DHT22;7898;48.658;9.068;2022-09-30T04:34:42;7.20;99.90
15596;DHT22;7898;48.658;9.068;2022-09-30T04:37:09;7.30;99.90
15596;DHT22;7898;48.658;9.068;2022-09-30T04:39:37;7.00;99.90
15596;DHT22;7898;48.658;9.068;2022-09-30T04:42:05;6.90;99.90
15596;DHT22;7898;48.658;9.068;2022-09-30T04:44:32;6.80;99.90
15596;DHT22;7898;48.658;9.068;2022-09-30T04:46:59;6.80;99.90
15596;DHT22;7898;48.658;9.068;2022-09-30T04:49:26;6.70;99.90
15596;DHT22;7898;48.658;9.068;2022-09-30T04:51:53;6.70;99.90
15596;DHT22;7898;48.658;9.068;2022-09-30T04:54:20;6.70;99.90
15596;DHT22;7898;48.658;9.068;2022-09-30T04:56:47;6.70;99.90
15596;DHT22;7898;48.658;9.068;2022-09-30T04:59:15;6.60;99.90
15596;DHT22;7898;48.658;9.068;2022-09-30T05:01:42;6.50;99.90
15596;DHT22;7898;48.658;9.068;2022-09-30T05:04:10;6.60;99.90
15596;DHT22;7898;48.658;9.068;2022-09-30T05:06:37;6.70;99.90
15596;DHT22;7898;48.658;9.068;2022-09-30T05:09:05;6.80;99.90
15596;DHT22;7898;48.658;9.068;2022-09-30T05:11:32;6.80;99.90
15596;DHT22;7898;48.658;9.068;2022-09-30T05:13:59;6.70;99.90
15596;DHT22;7898;48.658;9.068;2022-09-30T05:16:27;6.70;99.90
15596;DHT22;7898;48.658;9.068;2022-09-30T05:18:54;6.80;99.90
15596;DHT22;7898;48.658;9.068;2022-09-30T05:21:21;6.80;99.90
15596;DHT22;7898;48.658;9.068;2022-09-30T05:23:48;7.10;99.90
15596;DHT22;7898;48.658;9.068;2022-09-30T05:26:15;6.80;99.90
15596;DHT22;7898;48.658;9.068;2022-09-30T05:28:42;6.90;99.90
15596;DHT22;7898;48.658;9.068;2022-09-30T05:31:09;6.90;99.90
15596;DHT22;7898;48.658;9.068;2022-09-30T05:33:38;7.00;99.90
15596;DHT22;7898;48.658;9.068;2022-09-30T05:36:06;7.10;99.90
15596;DHT22;7898;48.658;9.068;2022-09-30T05:38:34;7.20;99.90
15596;DHT22;7898;48.658;9.068;2022-09-30T05:41:05;7.20;99.90
15596;DHT22;7898;48.658;9.068;2022-09-30T05:43:33;7.20;99.90
15596;DHT22;7898;48.658;9.068;2022-09-30T05:46:00;7.20;99.90
15596;DHT22;7898;48.658;9.068;2022-09-30T05:48:26;7.30;99.90
15596;DHT22;7898;48.658;9.068;2022-09-30T05:50:56;7.30;99.90
15596;DHT22;7898;48.658;9.068;2022-09-30T05:53:25;7.50;99.90
15596;DHT22;7898;48.658;9.068;2022-09-30T05:55:53;7.60;99.90
15596;DHT22;7898;48.658;9.068;2022-09-30T05:58:20;8.00;99.90
15596;DHT22;7898;48.658;9.068;2022-09-30T06:00:48;8.40;99.90
15596;DHT22;7898;48.658;9.068;2022-09-30T06:03:16;8.90;99.90
15596;DHT22;7898;48.658;9.068;2022-09-30T06:05:43;9.20;99.90
15596;DHT22;7898;48.658;9.068;2022-09-30T06:08:13;9.30;99.90
15596;DHT22;7898;48.658;9.068;2022-09-30T06:10:40;9.20;99.90
15596;DHT22;7898;48.658;9.068;2022-09-30T06:13:08;9.10;99.90
15596;DHT22;7898;48.658;9.068;2022-09-30T06:15:35;8.90;99.90
15596;DHT22;7898;48.658;9.068;2022-09-30T06:18:03;8.90;99.90
15596;DHT22;7898;48.658;9.068;2022-09-30T06:20:29;9.10;99.90
15596;DHT22;7898;48.658;9.068;2022-09-30T06:22:58;9.60;99.90
15596;DHT22;7898;48.658;9.068;2022-09-30T06:25:29;10.40;99.90
15596;DHT22;7898;48.658;9.068;2022-09-30T06:27:57;11.10;99.90
15596;DHT22;7898;48.658;9.068;2022-09-30T06:30:24;11.60;99.90
15596;DHT22;7898;48.658;9.068;2022-09-30T06:32:55;12.10;99.90
15596;DHT22;7898;48.658;9.068;2022-09-30T06:35:22;12.60;99.90
15596;DHT22;7898;48.658;9.068;2022-09-30T06:37:52;13.00;99.90
15596;DHT22;7898;48.658;9.068;2022-09-30T06:40:19;13.60;99.90
15596;DHT22;7898;48.658;9.068;2022-09-30T06:42:48;13.70;99.90
15596;DHT22;7898;48.658;9.068;2022-09-30T06:45:17;14.40;99.90
15596;DHT22;7898;48.658;9.068;2022-09-30T06:47:46;14.60;99.90
15596;DHT22;7898;48.658;9.068;2022-09-30T06:50:16;14.40;99.90
15596;DHT22;7898;48.658;9.068;2022-09-30T06:52:43;14.20;99.90
15596;DHT22;7898;48.658;9.068;2022-09-30T06:55:10;13.90;99.90
15596;DHT22;7898;48.658;9.068;2022-09-30T06:57:39;13.70;99.90
15596;DHT22;7898;48.658;9.068;2022-09-30T07:00:10;13.70;99.90
15596;DHT22;7898;48.658;9.068;2022-09-30T07:02:38;13.40;99.90
15596;DHT22;7898;48.658;9.068;2022-09-30T07:05:06;13.10;99.90
15596;DHT22;7898;48.658;9.068;2022-09-30T07:07:33;12.90;99.90
15596;DHT22;7898;48.658;9.068;2022-09-30T07:10:01;12.60;99.90
15596;DHT22;7898;48.658;9.068;2022-09-30T07:12:28;12.30;99.90
15596;DHT22;7898;48.658;9.068;2022-09-30T07:14:55;12.40;99.90
15596;DHT22;7898;48.658;9.068;2022-09-30T07:17:26;12.40;99.90
15596;DHT22;7898;48.658;9.068;2022-09-30T07:19:53;12.40;99.90
15596;DHT22;7898;48.658;9.068;2022-09-30T07:22:23;12.40;99.90
15596;DHT22;7898;48.658;9.068;2022-09-30T07:24:54;12.20;99.90
15596;DHT22;7898;48.658;9.068;2022-09-30T07:27:22;12.30;99.90
15596;DHT22;7898;48.658;9.068;2022-09-30T07:29:48;12.20;99.90
15596;DHT22;7898;48.658;9.068;2022-09-30T07:32:17;12.50;99.90
15596;DHT22;7898;48.658;9.068;2022-09-30T07:34:46;12.60;99.90
15596;DHT22;7898;48.658;9.068;2022-09-30T07:37:14;12.40;99.90
15596;DHT22;7898;48.658;9.068;2022-09-30T07:39:42;12.20;99.90
15596;DHT22;7898;48.658;9.068;2022-09-30T07:42:10;12.00;99.90
15596;DHT22;7898;48.658;9.068;2022-09-30T07:44:38;11.70;99.90
15596;DHT22;7898;48.658;9.068;2022-09-30T07:47:06;11.50;99.90
15596;DHT22;7898;48.658;9.068;2022-09-30T07:49:34;11.30;99.90
15596;DHT22;7898;48.658;9.068;2022-09-30T07:52:03;11.20;99.90
15596;DHT22;7898;48.658;9.068;2022-09-30T07:54:32;11.10;99.90
15596;DHT22;7898;48.658;9.068;2022-09-30T07:57:01;11.00;99.90
15596;DHT22;7898;48.658;9.068;2022-09-30T07:59:29;11.00;99.90
15596;DHT22;7898;48.658;9.068;2022-09-30T08:01:56;11.00;99.90
15596;DHT22;7898;48.658;9.068;2022-09-30T08:04:24;10.90;99.90
15596;DHT22;7898;48.658;9.068;2022-09-30T08:06:53;10.90;99.90
15596;DHT22;7898;48.658;9.068;2022-09-30T08:09:23;10.90;99.90
15596;DHT22;7898;48.658;9.068;2022-09-30T08:11:51;10.90;99.90
15596;DHT22;7898;48.658;9.068;2022-09-30T08:14:20;10.80;99.90
15596;DHT22;7898;48.658;9.068;2022-09-30T08:16:47;10.50;99.90
15596;DHT22;7898;48.658;9.068;2022-09-30T08:19:15;10.70;99.90
15596;DHT22;7898;48.658;9.068;2022-09-30T08:21:43;10.80;99.90
15596;DHT22;7898;48.658;9.068;2022-09-30T08:24:11;10.80;99.90
15596;DHT22;7898;48.658;9.068;2022-09-30T08:26:39;10.90;99.90
15596;DHT22;7898;48.658;9.068;2022-09-30T08:29:07;11.00;99.90
15596;DHT22;7898;48.658;9.068;2022-09-30T08:31:39;11.10;99.90
15596;DHT22;7898;48.658;9.068;2022-09-30T08:34:06;11.30;99.90
15596;DHT22;7898;48.658;9.068;2022-09-30T08:36:33;11.50;99.90
15596;DHT22;7898;48.658;9.068;2022-09-30T08:39:01;11.60;99.90
15596;DHT22;7898;48.658;9.068;2022-09-30T08:41:43;11.60;99.90
15596;DHT22;7898;48.658;9.068;2022-09-30T08:44:24;11.60;99.90
15596;DHT22;7898;48.658;9.068;2022-09-30T08:47:00;11.80;99.90
15596;DHT22;7898;48.658;9.068;2022-09-30T08:49:40;11.80;99.90
15596;DHT22;7898;48.658;9.068;2022-09-30T08:52:12;12.00;99.90
15596;DHT22;7898;48.658;9.068;2022-09-30T08:54:43;12.30;99.90
15596;DHT22;7898;48.658;9.068;2022-09-30T08:57:13;12.60;99.90
15596;DHT22;7898;48.658;9.068;2022-09-30T08:59:44;12.90;99.90
15596;DHT22;7898;48.658;9.068;2022-09-30T09:02:30;12.90;99.90
15596;DHT22;7898;48.658;9.068;2022-09-30T09:05:00;13.10;99.90
15596;DHT22;7898;48.658;9.068;2022-09-30T09:07:37;13.30;99.90
15596;DHT22;7898;48.658;9.068;2022-09-30T09:10:18;13.70;99.90
15596;DHT22;7898;48.658;9.068;2022-09-30T09:12:55;14.20;99.90
15596;DHT22;7898;48.658;9.068;2022-09-30T09:15:37;14.50;99.90
15596;DHT22;7898;48.658;9.068;2022-09-30T09:18:27;14.60;99.90
15596;DHT22;7898;48.658;9.068;2022-09-30T09:20:57;14.80;99.90
15596;DHT22;7898;48.658;9.068;2022-09-30T09:23:26;14.90;99.90
15596;DHT22;7898;48.658;9.068;2022-09-30T09:25:53;15.00;99.90
15596;DHT22;7898;48.658;9.068;2022-09-30T09:28:32;15.00;99.90
15596;DHT22;7898;48.658;9.068;2022-09-30T09:31:02;15.00;99.90
15596;DHT22;7898;48.658;9.068;2022-09-30T09:33:34;15.10;99.90
15596;DHT22;7898;48.658;9.068;2022-09-30T09:36:17;15.20;99.90
15596;DHT22;7898;48.658;9.068;2022-09-30T09:39:00;15.00;99.90
15596;DHT22;7898;48.658;9.068;2022-09-30T09:41:34;14.90;99.90
15596;DHT22;7898;48.658;9.068;2022-09-30T09:44:10;15.10;99.90
15596;DHT22;7898;48.658;9.068;2022-09-30T09:46:43;15.10;99.90
15596;DHT22;7898;48.658;9.068;2022-09-30T09:49:29;15.30;99.90
15596;DHT22;7898;48.658;9.068;2022-09-30T09:52:12;15.50;99.90
15596;DHT22;7898;48.658;9.068;2022-09-30T09:54:51;15.40;99.90
15596;DHT22;7898;48.658;9.068;2022-09-30T09:57:22;15.40;99.90
15596;DHT22;7898;48.658;9.068;2022-09-30T09:59:57;15.40;99.90
15596;DHT22;7898;48.658;9.068;2022-09-30T10:02:26;15.10;99.90
15596;DHT22;7898;48.658;9.068;2022-09-30T10:04:57;15.00;99.90
15596;DHT22;7898;48.658;9.068;2022-09-30T10:07:32;14.90;99.90
15596;DHT22;7898;48.658;9.068;2022-09-30T10:10:08;14.90;99.90
15596;DHT22;7898;48.658;9.068;2022-09-30T10:12:40;15.00;99.90
15596;DHT22;7898;48.658;9.068;2022-09-30T10:15:21;15.10;99.90
15596;DHT22;7898;48.658;9.068;2022-09-30T10:17:52;15.10;99.90
15596;DHT22;7898;48.658;9.068;2022-09-30T10:20:26;15.10;99.90
15596;DHT22;7898;48.658;9.068;2022-09-30T10:23:00;15.10;99.90
15596;DHT22;7898;48.658;9.068;2022-09-30T10:25:28;15.20;99.90
15596;DHT22;7898;48.658;9.068;2022-09-30T10:27:57;15.20;99.90
15596;DHT22;7898;48.658;9.068;2022-09-30T10:30:38;15.20;99.90
15596;DHT22;7898;48.658;9.068;2022-09-30T10:33:18;15.40;99.90
15596;DHT22;7898;48.658;9.068;2022-09-30T10:36:10;15.30;99.90
15596;DHT22;7898;48.658;9.068;2022-09-30T10:38:46;15.30;99.90
15596;DHT22;7898;48.658;9.068;2022-09-30T10:41:21;15.50;99.90
15596;DHT22;7898;48.658;9.068;2022-09-30T10:43:51;15.60;99.90
15596;DHT22;7898;48.658;9.068;2022-09-30T10:46:21;15.50;99.90
15596;DHT22;7898;48.658;9.068;2022-09-30T10:48:50;15.30;99.90
15596;DHT22;7898;48.658;9.068;2022-09-30T10:51:30;15.30;99.90
15596;DHT22;7898;48.658;9.068;2022-09-30T10:53:58;15.40;99.90
15596;DHT22;7898;48.658;9.068;2022-09-30T10:56:33;15.40;99.90
15596;DHT22;7898;48.658;9.068;2022-09-30T10:59:04;15.10;99.90
15596;DHT22;7898;48.658;9.068;2022-09-30T11:01:36;15.00;99.90
15596;DHT22;7898;48.658;9.068;2022-09-30T11:04:09;14.90;99.90
15596;DHT22;7898;48.658;9.068;2022-09-30T11:06:43;14.80;99.90
15596;DHT22;7898;48.658;9.068;2022-09-30T11:09:14;14.80;99.90
15596;DHT22;7898;48.658;9.068;2022-09-30T11:11:44;14.80;99.90
15596;DHT22;7898;48.658;9.068;2022-09-30T11:14:21;14.60;99.90
15596;DHT22;7898;48.658;9.068;2022-09-30T11:16:55;14.70;99.90
15596;DHT22;7898;48.658;9.068;2022-09-30T11:19:27;14.80;99.90
15596;DHT22;7898;48.658;9.068;2022-09-30T11:22:02;14.90;99.90
15596;DHT22;7898;48.658;9.068;2022-09-30T11:24:35;14.80;99.90
15596;DHT22;7898;48.658;9.068;2022-09-30T11:27:09;14.70;99.90
15596;DHT22;7898;48.658;9.068;2022-09-30T11:29:51;14.70;99.90
15596;DHT22;7898;48.658;9.068;2022-09-30T11:32:32;14.80;99.90
15596;DHT22;7898;48.658;9.068;2022-09-30T11:35:10;14.70;99.90
15596;DHT22;7898;48.658;9.068;2022-09-30T11:37:56;14.60;99.90
15596;DHT22;7898;48.658;9.068;2022-09-30T11:40:36;14.70;99.90
15596;DHT22;7898;48.658;9.068;2022-09-30T11:43:17;14.80;99.90
15596;DHT22;7898;48.658;9.068;2022-09-30T11:49:14;15.30;99.90
15596;DHT22;7898;48.658;9.068;2022-09-30T11:51:47;15.50;99.90
15596;DHT22;7898;48.658;9.068;2022-09-30T11:54:31;15.70;99.90
15596;DHT22;7898;48.658;9.068;2022-09-30T11:57:06;15.70;99.90
15596;DHT22;7898;48.658;9.068;2022-09-30T11:59:37;15.60;99.90
15596;DHT22;7898;48.658;9.068;2022-09-30T12:04:58;15.50;99.90
15596;DHT22;7898;48.658;9.068;2022-09-30T12:07:34;15.40;99.90
15596;DHT22;7898;48.658;9.068;2022-09-30T12:10:06;15.30;99.90
15596;DHT22;7898;48.658;9.068;2022-09-30T12:12:40;15.30;99.90
15596;DHT22;7898;48.658;9.068;2022-09-30T12:15:14;15.40;99.90
15596;DHT22;7898;48.658;9.068;2022-09-30T12:17:44;15.40;99.90
15596;DHT22;7898;48.658;9.068;2022-09-30T12:20:17;15.30;99.90
15596;DHT22;7898;48.658;9.068;2022-09-30T12:22:50;15.20;99.90
15596;DHT22;7898;48.658;9.068;2022-09-30T12:25:22;15.00;99.90
15596;DHT22;7898;48.658;9.068;2022-09-30T12:27:56;14.90;99.90
15596;DHT22;7898;48.658;9.068;2022-09-30T12:30:30;15.00;99.90
15596;DHT22;7898;48.658;9.068;2022-09-30T12:33:20;14.90;99.90
15596;DHT22;7898;48.658;9.068;2022-09-30T12:36:18;14.90;99.90
15596;DHT22;7898;48.658;9.068;2022-09-30T12:41:48;14.80;99.90
15596;DHT22;7898;48.658;9.068;2022-09-30T12:47:25;14.80;99.90
15596;DHT22;7898;48.658;9.068;2022-09-30T12:49:56;14.80;99.90
15596;DHT22;7898;48.658;9.068;2022-09-30T12:52:24;14.70;99.90
15596;DHT22;7898;48.658;9.068;2022-09-30T12:54:54;14.70;99.90
15596;DHT22;7898;48.658;9.068;2022-09-30T12:57:25;14.70;99.90
15596;DHT22;7898;48.658;9.068;2022-09-30T12:59:55;14.60;99.90
15596;DHT22;7898;48.658;9.068;2022-09-30T13:02:32;14.60;99.90
15596;DHT22;7898;48.658;9.068;2022-09-30T13:05:30;14.60;99.90
15596;DHT22;7898;48.658;9.068;2022-09-30T13:08:35;14.50;99.90
15596;DHT22;7898;48.658;9.068;2022-09-30T13:11:30;14.60;99.90
15596;DHT22;7898;48.658;9.068;2022-09-30T13:14:13;14.60;99.90
15596;DHT22;7898;48.658;9.068;2022-09-30T13:17:02;14.70;99.90
15596;DHT22;7898;48.658;9.068;2022-09-30T13:19:34;14.70;99.90
15596;DHT22;7898;48.658;9.068;2022-09-30T13:25:19;14.90;99.90
15596;DHT22;7898;48.658;9.068;2022-09-30T13:27:50;15.50;99.90
15596;DHT22;7898;48.658;9.068;2022-09-30T13:30:38;15.90;99.90
15596;DHT22;7898;48.658;9.068;2022-09-30T13:33:28;16.30;99.90
15596;DHT22;7898;48.658;9.068;2022-09-30T13:36:04;17.00;99.90
15596;DHT22;7898;48.658;9.068;2022-09-30T13:38:34;17.60;99.90
15596;DHT22;7898;48.658;9.068;2022-09-30T13:41:06;18.20;99.90
15596;DHT22;7898;48.658;9.068;2022-09-30T13:43:38;18.80;99.90
15596;DHT22;7898;48.658;9.068;2022-09-30T13:46:23;18.90;99.90
15596;DHT22;7898;48.658;9.068;2022-09-30T13:48:56;19.00;99.90
15596;DHT22;7898;48.658;9.068;2022-09-30T13:51:27;18.90;99.90
15596;DHT22;7898;48.658;9.068;2022-09-30T13:54:06;19.00;99.90
15596;DHT22;7898;48.658;9.068;2022-09-30T13:56:37;19.20;99.90
15596;DHT22;7898;48.658;9.068;2022-09-30T13:59:29;19.50;99.90
15596;DHT22;7898;48.658;9.068;2022-09-30T14:02:21;20.10;99.90
15596;DHT22;7898;48.658;9.068;2022-09-30T14:05:13;20.70;99.90
15596;DHT22;7898;48.658;9.068;2022-09-30T14:07:54;21.20;99.90
15596;DHT22;7898;48.658;9.068;2022-09-30T14:10:38;21.70;99.90
15596;DHT22;7898;48.658;9.068;2022-09-30T14:13:21;21.80;99.90
15596;DHT22;7898;48.658;9.068;2022-09-30T14:16:10;21.10;99.90
15596;DHT22;7898;48.658;9.068;2022-09-30T14:21:44;19.30;99.90
15596;DHT22;7898;48.658;9.068;2022-09-30T14:24:14;18.60;99.90
15596;DHT22;7898;48.658;9.068;2022-09-30T14:27:00;18.10;99.90
15596;DHT22;7898;48.658;9.068;2022-09-30T14:29:38;17.60;99.90
15596;DHT22;7898;48.658;9.068;2022-09-30T14:32:11;17.10;99.90
15596;DHT22;7898;48.658;9.068;2022-09-30T14:34:40;16.80;99.90
15596;DHT22;7898;48.658;9.068;2022-09-30T14:37:15;16.70;99.90
15596;DHT22;7898;48.658;9.068;2022-09-30T14:39:46;16.90;99.90
15596;DHT22;7898;48.658;9.068;2022-09-30T14:42:17;17.10;99.90
15596;DHT22;7898;48.658;9.068;2022-09-30T14:44:49;16.90;99.90
15596;DHT22;7898;48.658;9.068;2022-09-30T14:47:17;16.90;99.90
15596;DHT22;7898;48.658;9.068;2022-09-30T14:49:48;16.80;99.90
15596;DHT22;7898;48.658;9.068;2022-09-30T14:52:34;16.80;99.90
15596;DHT22;7898;48.658;9.068;2022-09-30T14:55:01;16.80;99.90
15596;DHT22;7898;48.658;9.068;2022-09-30T14:57:31;17.30;99.90
15596;DHT22;7898;48.658;9.068;2022-09-30T15:00:26;18.20;99.90
15596;DHT22;7898;48.658;9.068;2022-09-30T15:02:57;18.90;99.90
15596;DHT22;7898;48.658;9.068;2022-09-30T15:05:27;19.50;99.90
15596;DHT22;7898;48.658;9.068;2022-09-30T15:07:54;20.00;99.90
15596;DHT22;7898;48.658;9.068;2022-09-30T15:10:22;20.10;99.90
15596;DHT22;7898;48.658;9.068;2022-09-30T15:12:51;20.30;99.90
15596;DHT22;7898;48.658;9.068;2022-09-30T15:15:26;20.00;99.90
15596;DHT22;7898;48.658;9.068;2022-09-30T15:17:58;19.60;99.90
15596;DHT22;7898;48.658;9.068;2022-09-30T15:20:30;19.20;99.90
15596;DHT22;7898;48.658;9.068;2022-09-30T15:23:00;19.10;99.90
15596;DHT22;7898;48.658;9.068;2022-09-30T15:25:32;18.60;99.90
15596;DHT22;7898;48.658;9.068;2022-09-30T15:27:59;18.10;99.90
15596;DHT22;7898;48.658;9.068;2022-09-30T15:30:27;17.70;99.90
15596;DHT22;7898;48.658;9.068;2022-09-30T15:33:00;17.40;99.90
15596;DHT22;7898;48.658;9.068;2022-09-30T15:35:30;17.00;99.90
15596;DHT22;7898;48.658;9.068;2022-09-30T15:38:06;16.70;99.90
15596;DHT22;7898;48.658;9.068;2022-09-30T15:40:34;16.40;99.90
15596;DHT22;7898;48.658;9.068;2022-09-30T15:43:32;16.10;99.90
15596;DHT22;7898;48.658;9.068;2022-09-30T15:46:16;15.70;99.90
15596;DHT22;7898;48.658;9.068;2022-09-30T15:48:43;15.50;99.90
15596;DHT22;7898;48.658;9.068;2022-09-30T15:51:37;15.30;99.90
15596;DHT22;7898;48.658;9.068;2022-09-30T15:54:27;15.10;99.90
15596;DHT22;7898;48.658;9.068;2022-09-30T15:56:57;15.10;99.90
15596;DHT22;7898;48.658;9.068;2022-09-30T15:59:58;15.10;99.90
15596;DHT22;7898;48.658;9.068;2022-09-30T16:02:27;15.10;99.90
15596;DHT22;7898;48.658;9.068;2022-09-30T16:04:55;15.00;99.90
15596;DHT22;7898;48.658;9.068;2022-09-30T16:07:24;14.80;99.90
15596;DHT22;7898;48.658;9.068;2022-09-30T16:09:54;14.70;99.90
15596;DHT22;7898;48.658;9.068;2022-09-30T16:12:24;14.60;99.90
15596;DHT22;7898;48.658;9.068;2022-09-30T16:14:58;14.40;99.90
15596;DHT22;7898;48.658;9.068;2022-09-30T16:17:27;14.30;99.90
15596;DHT22;7898;48.658;9.068;2022-09-30T16:19:56;14.20;99.90
15596;DHT22;7898;48.658;9.068;2022-09-30T16:22:37;14.00;99.90
15596;DHT22;7898;48.658;9.068;2022-09-30T16:25:21;13.90;99.90
15596;DHT22;7898;48.658;9.068;2022-09-30T16:27:53;13.80;99.90
15596;DHT22;7898;48.658;9.068;2022-09-30T16:30:22;13.70;99.90
15596;DHT22;7898;48.658;9.068;2022-09-30T16:32:51;13.60;99.90
15596;DHT22;7898;48.658;9.068;2022-09-30T16:35:20;13.50;99.90
15596;DHT22;7898;48.658;9.068;2022-09-30T16:37:49;13.40;99.90
15596;DHT22;7898;48.658;9.068;2022-09-30T16:40:20;13.30;99.90
15596;DHT22;7898;48.658;9.068;2022-09-30T16:42:48;13.30;99.90
15596;DHT22;7898;48.658;9.068;2022-09-30T16:45:15;13.20;99.90
15596;DHT22;7898;48.658;9.068;2022-09-30T16:47:43;13.20;99.90
15596;DHT22;7898;48.658;9.068;2022-09-30T16:50:23;13.20;99.90
15596;DHT22;7898;48.658;9.068;2022-09-30T16:52:52;13.10;99.90
15596;DHT22;7898;48.658;9.068;2022-09-30T16:55:19;13.00;99.90